Terminal Aerodrome Forecast
Issued by NWS Jackson, MS

Home | Current Version | Previous Version | Text Only | Print | Product List | Glossary On
Versions: 1 2 3 4 5 6 7 8 9 10 11 12 13 14 15 16 17 18
000
FTUS44 KJAN 021400 AAA
TAFJAN
TAF AMD
KJAN 021400Z 0214/0312 36006KT 2SM -DZ BR OVC002
     FM021600 03007KT 2SM -SHRA BR OVC005
     FM030400 14005KT 1/2SM FG OVC003=

USA.gov is the U.S. government's official web portal to all federal, state and local government web resources and services.